Time;durP1;ratioP1;P1;durP2;ratioP2;P2;SDS_P1;SDS_P2;PMS_P1;PMS_P2;Temp;Humidity;BMP_temperature;BMP_pressure;BME280_temperature;BME280_humidity;BME280_pressure;Samples;Min_cycle;Max_cycle;Signal;HPM_P1;HPM_P2
2023/08/31 00:00:36;;;;;;;4.38;1.15;;;12.70;99.90;;;;;;5042425;28;20190;-51
2023/08/31 00:03:02;;;;;;;4.05;0.93;;;12.60;99.90;;;;;;5039414;28;20715;-53
2023/08/31 00:05:30;;;;;;;3.25;0.80;;;12.60;99.90;;;;;;5034154;28;20404;-54
2023/08/31 00:07:56;;;;;;;3.08;0.70;;;12.60;99.90;;;;;;5037351;28;20283;-54
2023/08/31 00:10:23;;;;;;;1.30;0.68;;;12.60;99.90;;;;;;5012079;28;20113;-53
2023/08/31 00:12:49;;;;;;;3.55;1.02;;;12.60;99.90;;;;;;5047814;28;20048;-52
2023/08/31 00:15:15;;;;;;;2.05;0.90;;;12.60;99.90;;;;;;5026829;28;20125;-52
2023/08/31 00:17:41;;;;;;;3.55;1.10;;;12.50;99.90;;;;;;5042653;28;20119;-54
2023/08/31 00:20:11;;;;;;;3.78;0.82;;;12.50;99.90;;;;;;5042947;28;20033;-54
2023/08/31 00:22:37;;;;;;;2.47;0.80;;;12.50;99.90;;;;;;5042208;28;20046;-51
2023/08/31 00:25:05;;;;;;;5.30;1.88;;;12.40;99.90;;;;;;5046441;28;20121;-53
2023/08/31 00:27:31;;;;;;;2.92;0.93;;;12.40;99.90;;;;;;5028710;28;20033;-54
2023/08/31 00:29:58;;;;;;;1.23;0.82;;;12.40;99.90;;;;;;5028981;28;20507;-53
2023/08/31 00:32:24;;;;;;;3.42;1.00;;;12.30;99.90;;;;;;5044319;28;20047;-54
2023/08/31 00:34:50;;;;;;;2.25;1.27;;;12.30;99.90;;;;;;5037107;28;20604;-53
2023/08/31 00:37:16;;;;;;;2.30;0.82;;;12.30;99.90;;;;;;5023961;28;20048;-54
2023/08/31 00:39:41;;;;;;;3.10;1.00;;;12.30;99.90;;;;;;5040688;28;20037;-55
2023/08/31 00:42:07;;;;;;;3.75;0.90;;;12.30;99.90;;;;;;5046874;28;20695;-55
2023/08/31 00:44:33;;;;;;;2.55;0.70;;;12.30;99.90;;;;;;5047732;28;20719;-55
2023/08/31 00:46:59;;;;;;;2.83;0.85;;;12.20;99.90;;;;;;5045360;28;20045;-56
2023/08/31 00:49:25;;;;;;;3.75;0.60;;;12.20;99.90;;;;;;5044906;28;20045;-55
2023/08/31 00:51:51;;;;;;;2.85;0.80;;;12.20;99.90;;;;;;5045854;28;20098;-54
2023/08/31 00:54:18;;;;;;;3.00;0.85;;;12.20;99.90;;;;;;5042707;28;20049;-54
2023/08/31 00:56:44;;;;;;;4.78;0.70;;;12.20;99.90;;;;;;5024654;28;20305;-54
2023/08/31 00:59:14;;;;;;;3.53;0.65;;;12.20;99.90;;;;;;5051700;28;20045;-55
2023/08/31 01:01:49;;;;;;;2.92;0.50;;;12.20;99.90;;;;;;5048407;28;20392;-55
2023/08/31 01:04:40;;;;;;;2.10;0.68;;;12.10;99.90;;;;;;5035129;28;20103;-54
2023/08/31 01:07:30;;;;;;;1.70;0.60;;;12.20;99.90;;;;;;5033304;28;20172;-55
2023/08/31 01:10:05;;;;;;;3.00;0.60;;;12.20;99.90;;;;;;5037198;28;20042;-54
2023/08/31 01:12:34;;;;;;;3.38;0.90;;;12.10;99.90;;;;;;5041152;28;20044;-53
2023/08/31 01:15:04;;;;;;;4.88;0.80;;;12.10;99.90;;;;;;5034890;28;20044;-54
2023/08/31 01:17:31;;;;;;;3.08;0.60;;;12.10;99.90;;;;;;5037744;28;20036;-52
2023/08/31 01:20:00;;;;;;;2.38;0.63;;;12.10;99.90;;;;;;5031282;28;20484;-54
2023/08/31 01:22:40;;;;;;;2.20;0.60;;;12.10;99.90;;;;;;5043140;28;20481;-53
2023/08/31 01:25:09;;;;;;;2.13;0.52;;;12.00;99.90;;;;;;5040323;28;20067;-54
2023/08/31 01:27:35;;;;;;;1.95;0.60;;;12.00;99.90;;;;;;5040686;28;20576;-51
2023/08/31 01:30:03;;;;;;;2.47;0.60;;;12.00;99.90;;;;;;5041846;28;20511;-53
2023/08/31 01:32:29;;;;;;;1.45;0.60;;;12.00;99.90;;;;;;5047770;28;20052;-55
2023/08/31 01:34:57;;;;;;;2.38;0.73;;;12.00;99.90;;;;;;5039268;28;20103;-54
2023/08/31 01:37:54;;;;;;;3.50;0.70;;;12.00;99.90;;;;;;5043352;28;20040;-54
2023/08/31 01:40:44;;;;;;;1.55;0.95;;;12.00;99.90;;;;;;5036045;28;20524;-54
2023/08/31 01:43:11;;;;;;;2.85;0.75;;;12.00;99.90;;;;;;5029219;28;20052;-55
2023/08/31 01:45:37;;;;;;;3.13;0.70;;;12.00;99.90;;;;;;5043152;28;20072;-53
2023/08/31 01:48:04;;;;;;;2.10;0.75;;;12.00;99.90;;;;;;5043206;28;20047;-52
2023/08/31 01:50:30;;;;;;;5.55;0.80;;;12.00;99.90;;;;;;5038950;28;20119;-54
2023/08/31 01:52:56;;;;;;;1.52;0.68;;;12.00;99.90;;;;;;5047802;28;20123;-53
2023/08/31 01:55:23;;;;;;;2.30;0.77;;;12.00;99.90;;;;;;5040582;28;20044;-52
2023/08/31 01:57:49;;;;;;;4.80;0.80;;;12.00;99.90;;;;;;5046416;28;20040;-54
2023/08/31 02:00:16;;;;;;;2.38;0.60;;;12.00;99.90;;;;;;5040975;28;20137;-51
2023/08/31 02:02:42;;;;;;;3.65;0.70;;;11.90;99.90;;;;;;5027755;28;20041;-54
2023/08/31 02:05:08;;;;;;;2.85;0.47;;;11.90;99.90;;;;;;5042179;28;20029;-53
2023/08/31 02:07:34;;;;;;;3.65;0.75;;;11.90;99.90;;;;;;5043828;28;20048;-54
2023/08/31 02:10:00;;;;;;;1.80;0.60;;;11.80;99.90;;;;;;5043268;28;20079;-54
2023/08/31 02:12:25;;;;;;;1.27;0.70;;;11.80;99.90;;;;;;5027872;28;20044;-51
2023/08/31 02:14:51;;;;;;;1.70;0.70;;;11.80;99.90;;;;;;5044880;28;20055;-54
2023/08/31 02:17:17;;;;;;;2.38;0.70;;;11.80;99.90;;;;;;5030412;28;20389;-53
2023/08/31 02:19:43;;;;;;;2.95;0.70;;;11.80;99.90;;;;;;5042131;28;20416;-54
2023/08/31 02:22:09;;;;;;;2.58;0.70;;;11.80;99.90;;;;;;5014359;28;20281;-54
2023/08/31 02:24:34;;;;;;;2.42;0.60;;;11.80;99.90;;;;;;5044753;28;20048;-56
2023/08/31 02:27:00;;;;;;;2.08;0.63;;;11.80;99.90;;;;;;5047976;28;20033;-52
2023/08/31 02:29:26;;;;;;;2.47;0.70;;;11.80;99.90;;;;;;5041508;28;20072;-53
2023/08/31 02:31:52;;;;;;;5.30;1.05;;;11.80;99.90;;;;;;5026230;28;20109;-55
2023/08/31 02:34:17;;;;;;;2.53;0.60;;;11.80;99.90;;;;;;5040247;28;20049;-52
2023/08/31 02:36:43;;;;;;;6.13;0.88;;;11.80;99.90;;;;;;5036344;28;20187;-54
2023/08/31 02:39:09;;;;;;;2.45;0.80;;;11.80;99.90;;;;;;5022196;28;20045;-53
2023/08/31 02:41:34;;;;;;;3.00;0.60;;;11.90;99.90;;;;;;5037001;28;20037;-51
2023/08/31 02:44:00;;;;;;;2.30;0.60;;;11.90;99.90;;;;;;5043710;28;20139;-52
2023/08/31 02:46:26;;;;;;;2.25;0.90;;;12.00;99.90;;;;;;5023995;28;20079;-54
2023/08/31 02:48:52;;;;;;;2.47;0.70;;;12.00;99.90;;;;;;5041730;28;20082;-53
2023/08/31 02:51:17;;;;;;;2.13;0.73;;;12.00;99.90;;;;;;5043387;28;20476;-55
2023/08/31 02:53:43;;;;;;;2.88;0.80;;;12.00;99.90;;;;;;5044158;28;20037;-55
2023/08/31 02:56:09;;;;;;;4.30;0.93;;;12.00;99.90;;;;;;5021690;28;20554;-54
2023/08/31 02:58:34;;;;;;;2.60;0.80;;;12.00;99.90;;;;;;5041097;28;20499;-54
2023/08/31 03:01:11;;;;;;;3.92;0.70;;;12.10;99.90;;;;;;5042534;28;20105;-54
2023/08/31 03:03:41;;;;;;;4.45;0.90;;;12.10;99.90;;;;;;5044942;28;20140;-56
2023/08/31 03:06:10;;;;;;;3.33;0.80;;;12.20;99.90;;;;;;5027008;28;20123;-55
2023/08/31 03:08:37;;;;;;;6.85;1.08;;;12.20;99.90;;;;;;5041887;28;20473;-53
2023/08/31 03:11:04;;;;;;;3.13;0.90;;;12.30;99.90;;;;;;5042508;28;20044;-55
2023/08/31 03:13:31;;;;;;;6.18;1.10;;;12.30;99.90;;;;;;5040290;28;20094;-54
2023/08/31 03:15:57;;;;;;;3.00;1.00;;;12.40;99.90;;;;;;5036825;28;20044;-54
2023/08/31 03:18:23;;;;;;;4.20;1.30;;;12.40;99.90;;;;;;5041282;28;20025;-54
2023/08/31 03:20:49;;;;;;;3.90;1.08;;;12.40;99.90;;;;;;5019263;28;20566;-53
2023/08/31 03:23:15;;;;;;;4.78;1.23;;;12.40;99.90;;;;;;5042974;28;20048;-54
2023/08/31 03:25:41;;;;;;;6.03;1.08;;;12.40;99.90;;;;;;5042353;28;20037;-52
2023/08/31 03:28:07;;;;;;;4.47;1.02;;;12.40;99.90;;;;;;5038350;28;20045;-54
2023/08/31 03:30:32;;;;;;;5.32;1.30;;;12.40;99.90;;;;;;5041694;28;20507;-53
2023/08/31 03:32:58;;;;;;;4.88;1.15;;;12.50;99.90;;;;;;5040896;28;20049;-54
2023/08/31 03:35:26;;;;;;;6.53;1.40;;;12.50;99.90;;;;;;5038522;28;20098;-52
2023/08/31 03:37:56;;;;;;;10.63;1.63;;;12.50;99.90;;;;;;5036864;28;20443;-54
2023/08/31 03:40:22;;;;;;;4.15;1.40;;;12.50;99.90;;;;;;5015621;28;20454;-52
2023/08/31 03:42:49;;;;;;;6.72;1.38;;;12.50;99.90;;;;;;5021618;28;20045;-52
2023/08/31 03:45:15;;;;;;;4.85;1.17;;;12.50;99.90;;;;;;5040549;28;20393;-51
2023/08/31 03:47:41;;;;;;;4.65;1.20;;;12.50;99.90;;;;;;5036969;28;20071;-54
2023/08/31 03:50:08;;;;;;;5.95;1.45;;;12.50;99.90;;;;;;5017946;28;20069;-54
2023/08/31 03:52:34;;;;;;;6.22;1.80;;;12.50;99.90;;;;;;5037333;28;20464;-54
2023/08/31 03:55:00;;;;;;;9.55;1.88;;;12.50;99.90;;;;;;5033025;28;20068;-57
2023/08/31 03:57:26;;;;;;;5.03;1.35;;;12.50;99.90;;;;;;5041472;28;20045;-55
2023/08/31 03:59:52;;;;;;;16.92;2.53;;;12.50;99.90;;;;;;5050559;28;20083;-53
2023/08/31 04:02:17;;;;;;;6.85;1.73;;;12.50;99.90;;;;;;5037546;28;20072;-54
2023/08/31 04:04:43;;;;;;;4.15;1.02;;;12.50;99.90;;;;;;5047351;28;20060;-55
2023/08/31 04:07:09;;;;;;;6.40;1.60;;;12.40;99.90;;;;;;5026841;28;20682;-55
2023/08/31 04:09:35;;;;;;;5.10;1.38;;;12.40;99.90;;;;;;5033546;28;20380;-53
2023/08/31 04:12:00;;;;;;;8.88;1.35;;;12.40;99.90;;;;;;5043263;28;20049;-55
2023/08/31 04:14:27;;;;;;;6.63;1.40;;;12.40;99.90;;;;;;5039411;28;20063;-54
2023/08/31 04:16:54;;;;;;;6.70;1.77;;;12.40;99.90;;;;;;5040883;28;20041;-54
2023/08/31 04:19:20;;;;;;;7.18;1.45;;;12.30;99.90;;;;;;5033162;28;20049;-55
2023/08/31 04:21:45;;;;;;;7.03;1.27;;;12.30;99.90;;;;;;5027043;28;20595;-55
2023/08/31 04:24:21;;;;;;;7.03;1.83;;;12.30;99.90;;;;;;5042968;28;20094;-54
2023/08/31 04:26:49;;;;;;;5.80;1.77;;;12.30;99.90;;;;;;5035978;28;20048;-56
2023/08/31 04:29:14;;;;;;;7.10;1.67;;;12.20;99.90;;;;;;5021452;28;20045;-55
2023/08/31 04:31:40;;;;;;;4.15;1.30;;;12.20;99.90;;;;;;5045231;28;20051;-55
2023/08/31 04:34:07;;;;;;;4.50;1.45;;;12.20;99.90;;;;;;5035817;28;20124;-55
2023/08/31 04:36:33;;;;;;;3.60;1.30;;;12.20;99.90;;;;;;5041976;28;20040;-54
2023/08/31 04:38:59;;;;;;;3.72;1.30;;;12.20;99.90;;;;;;5024267;28;20247;-56
2023/08/31 04:41:24;;;;;;;2.80;1.33;;;12.20;99.90;;;;;;5033185;28;20099;-55
2023/08/31 04:43:50;;;;;;;3.63;1.42;;;12.10;99.90;;;;;;5035224;28;20033;-55
2023/08/31 04:46:16;;;;;;;5.63;1.42;;;12.10;99.90;;;;;;5030760;28;20037;-55
2023/08/31 04:48:42;;;;;;;5.13;1.50;;;12.10;99.90;;;;;;5037214;28;20052;-55
2023/08/31 04:51:26;;;;;;;3.15;1.23;;;12.10;99.90;;;;;;5038356;28;20034;-52
2023/08/31 04:53:52;;;;;;;6.10;1.60;;;12.00;99.90;;;;;;5041493;28;20049;-54
2023/08/31 04:56:18;;;;;;;5.03;1.40;;;12.00;99.90;;;;;;5039093;28;20041;-54
2023/08/31 04:58:43;;;;;;;4.53;1.50;;;12.00;99.90;;;;;;5037644;28;20041;-54
2023/08/31 05:01:09;;;;;;;5.55;1.75;;;12.00;99.90;;;;;;5024138;28;20547;-52
2023/08/31 05:03:35;;;;;;;4.70;1.50;;;12.00;99.90;;;;;;5040748;28;20036;-54
2023/08/31 05:06:03;;;;;;;5.95;1.58;;;12.00;99.90;;;;;;5043378;28;20499;-54
2023/08/31 05:08:29;;;;;;;5.85;1.73;;;12.00;99.90;;;;;;5040227;28;20087;-54
2023/08/31 05:10:55;;;;;;;5.20;1.70;;;12.00;99.90;;;;;;5029166;28;20504;-55
2023/08/31 05:13:20;;;;;;;7.18;1.75;;;12.00;99.90;;;;;;5021539;28;20124;-56
2023/08/31 05:15:46;;;;;;;3.95;1.50;;;12.00;99.90;;;;;;5042683;28;20488;-55
2023/08/31 05:18:12;;;;;;;7.15;1.73;;;12.00;99.90;;;;;;5041352;28;20041;-54
2023/08/31 05:20:37;;;;;;;5.50;1.90;;;12.00;99.90;;;;;;5045033;28;20038;-55
2023/08/31 05:23:03;;;;;;;5.00;1.77;;;12.10;99.90;;;;;;5048987;28;20407;-54
2023/08/31 05:25:29;;;;;;;3.08;1.40;;;12.10;99.90;;;;;;5041699;28;20052;-54
2023/08/31 05:27:55;;;;;;;7.63;1.48;;;12.10;99.90;;;;;;5030332;28;20377;-54
2023/08/31 05:30:20;;;;;;;5.65;1.60;;;12.20;99.90;;;;;;5044929;28;20047;-52
2023/08/31 05:32:46;;;;;;;4.13;1.40;;;12.20;99.90;;;;;;5046238;28;20377;-53
2023/08/31 05:35:12;;;;;;;8.30;1.45;;;12.20;99.90;;;;;;5040178;28;20051;-54
2023/08/31 05:37:37;;;;;;;3.63;1.15;;;12.30;99.90;;;;;;5037926;28;20074;-53
2023/08/31 05:40:06;;;;;;;4.10;1.33;;;12.30;99.90;;;;;;5038499;28;20532;-55
2023/08/31 05:42:32;;;;;;;7.65;2.03;;;12.40;99.90;;;;;;5039389;28;20080;-55
2023/08/31 05:44:58;;;;;;;6.40;1.70;;;12.40;99.90;;;;;;5043078;28;20471;-55
2023/08/31 05:47:24;;;;;;;4.82;1.73;;;12.40;99.90;;;;;;5038828;28;20092;-56
2023/08/31 05:49:51;;;;;;;3.88;1.50;;;12.50;99.90;;;;;;5041621;28;20045;-52
2023/08/31 05:52:16;;;;;;;4.75;1.45;;;12.50;99.90;;;;;;5045142;28;20041;-55
2023/08/31 05:54:42;;;;;;;3.55;1.23;;;12.50;99.90;;;;;;5053188;28;20039;-54
2023/08/31 05:57:08;;;;;;;5.72;1.50;;;12.60;99.90;;;;;;5044768;28;20124;-55
2023/08/31 05:59:33;;;;;;;3.15;1.40;;;12.60;99.90;;;;;;5047894;28;20399;-55
2023/08/31 06:01:59;;;;;;;3.83;1.58;;;12.60;99.90;;;;;;5048083;28;20040;-54
2023/08/31 06:04:25;;;;;;;8.57;1.40;;;12.70;99.90;;;;;;5036927;28;20112;-53
2023/08/31 06:06:53;;;;;;;6.13;1.52;;;12.80;99.90;;;;;;5044781;28;20091;-52
2023/08/31 06:09:20;;;;;;;2.78;1.30;;;12.80;99.90;;;;;;5028176;28;20040;-52
2023/08/31 06:11:46;;;;;;;3.22;1.20;;;12.90;99.90;;;;;;5048278;28;20036;-55
2023/08/31 06:14:11;;;;;;;2.95;1.20;;;13.00;99.90;;;;;;5029154;28;20041;-54
2023/08/31 06:16:37;;;;;;;6.18;1.20;;;13.10;99.90;;;;;;5046658;28;20048;-52
2023/08/31 06:19:03;;;;;;;5.82;1.77;;;13.10;99.90;;;;;;5048434;28;20039;-55
2023/08/31 06:21:29;;;;;;;9.13;1.40;;;13.20;99.90;;;;;;5044059;28;20036;-55
2023/08/31 06:23:54;;;;;;;4.53;1.00;;;13.30;99.90;;;;;;5045828;28;20509;-53
2023/08/31 06:26:20;;;;;;;3.72;1.08;;;13.40;99.90;;;;;;5047845;28;20045;-53
2023/08/31 06:28:46;;;;;;;7.43;1.60;;;13.40;99.90;;;;;;5053804;28;20044;-54
2023/08/31 06:31:11;;;;;;;3.58;1.27;;;13.50;99.90;;;;;;5044553;28;20033;-53
2023/08/31 06:33:37;;;;;;;4.13;1.10;;;13.60;99.90;;;;;;5022935;28;20040;-53
2023/08/31 06:36:03;;;;;;;3.75;1.00;;;13.70;99.90;;;;;;5031062;28;20116;-53
2023/08/31 06:38:29;;;;;;;6.30;1.42;;;13.80;99.90;;;;;;5046972;28;20525;-55
2023/08/31 06:40:58;;;;;;;4.22;1.38;;;13.80;99.90;;;;;;5044168;28;20463;-54
2023/08/31 06:43:26;;;;;;;3.83;1.35;;;13.90;99.90;;;;;;5051601;28;20085;-55
2023/08/31 06:45:53;;;;;;;2.72;1.10;;;14.00;99.90;;;;;;5047607;28;20037;-55
2023/08/31 06:48:18;;;;;;;5.78;1.40;;;14.10;99.90;;;;;;5044986;28;20040;-53
2023/08/31 06:50:44;;;;;;;4.25;1.30;;;14.20;99.90;;;;;;5044805;28;20061;-53
2023/08/31 06:53:10;;;;;;;5.28;1.35;;;14.30;99.90;;;;;;5033771;28;20053;-53
2023/08/31 06:55:35;;;;;;;4.30;1.30;;;14.40;99.90;;;;;;5034056;28;20118;-53
2023/08/31 06:58:05;;;;;;;4.28;1.70;;;14.50;99.90;;;;;;5039912;28;20037;-54
2023/08/31 07:00:32;;;;;;;3.97;1.38;;;14.60;99.90;;;;;;5024977;28;21005;-53
2023/08/31 07:02:58;;;;;;;6.20;1.40;;;14.70;99.90;;;;;;5045110;28;20400;-55
2023/08/31 07:05:26;;;;;;;5.93;1.75;;;14.80;99.90;;;;;;5040397;28;20195;-54
2023/08/31 07:07:55;;;;;;;4.55;1.10;;;15.00;99.90;;;;;;5028282;28;20037;-54
2023/08/31 07:10:21;;;;;;;3.55;1.40;;;15.10;99.90;;;;;;5044986;28;20048;-54
2023/08/31 07:12:47;;;;;;;3.47;0.80;;;15.20;99.90;;;;;;5047847;28;20102;-54
2023/08/31 07:15:12;;;;;;;3.85;1.05;;;15.30;99.90;;;;;;5050029;22;20126;-58
2023/08/31 07:17:38;;;;;;;2.70;1.00;;;15.40;99.90;;;;;;5023988;28;20044;-56
2023/08/31 07:20:05;;;;;;;3.28;0.95;;;15.50;99.90;;;;;;5009992;28;20038;-59
2023/08/31 07:22:33;;;;;;;4.03;1.02;;;15.60;99.90;;;;;;5027556;28;20044;-58
2023/08/31 07:24:59;;;;;;;2.83;1.20;;;15.70;99.90;;;;;;5030211;28;20040;-57
2023/08/31 07:27:25;;;;;;;2.97;1.15;;;15.70;99.90;;;;;;5025237;28;20041;-57
2023/08/31 07:29:53;;;;;;;4.28;1.15;;;15.70;99.90;;;;;;5065418;28;20518;-58
2023/08/31 07:32:19;;;;;;;3.47;0.90;;;15.70;99.90;;;;;;5061108;28;20036;-58
2023/08/31 07:34:45;;;;;;;4.53;1.05;;;15.90;99.90;;;;;;5024752;28;20666;-58
2023/08/31 07:37:11;;;;;;;1.45;0.63;;;15.90;99.90;;;;;;5026853;28;20123;-56
2023/08/31 07:39:36;;;;;;;2.30;0.75;;;16.00;99.90;;;;;;5030044;28;20040;-57
2023/08/31 07:42:02;;;;;;;2.75;0.85;;;16.20;99.90;;;;;;5040274;28;20037;-57
2023/08/31 07:44:28;;;;;;;3.53;0.90;;;16.30;99.90;;;;;;5067320;28;20770;-57
2023/08/31 07:46:54;;;;;;;2.88;1.10;;;16.40;99.90;;;;;;5031686;28;20036;-57
2023/08/31 07:49:19;;;;;;;2.40;0.68;;;16.40;99.90;;;;;;5031988;28;20120;-56
2023/08/31 07:51:45;;;;;;;2.75;0.88;;;16.40;99.90;;;;;;5031144;28;20047;-57
2023/08/31 07:54:12;;;;;;;3.28;0.70;;;16.60;99.90;;;;;;5026767;28;20118;-57
2023/08/31 07:56:40;;;;;;;4.28;0.77;;;16.70;99.90;;;;;;5044359;28;20400;-57
2023/08/31 07:59:05;;;;;;;1.55;0.55;;;16.90;99.90;;;;;;5034195;28;20044;-56
2023/08/31 08:01:31;;;;;;;2.78;0.63;;;17.00;99.90;;;;;;5012398;28;20159;-56
2023/08/31 08:03:58;;;;;;;3.22;0.60;;;17.10;99.90;;;;;;5028847;28;20040;-56
2023/08/31 08:06:23;;;;;;;1.63;0.55;;;17.20;99.90;;;;;;5025084;28;20040;-58
2023/08/31 08:08:49;;;;;;;1.27;0.52;;;17.40;99.90;;;;;;5030882;28;20055;-58
2023/08/31 08:11:15;;;;;;;2.60;0.70;;;17.50;99.90;;;;;;5039479;28;20051;-58
2023/08/31 08:13:40;;;;;;;5.93;1.52;;;17.40;99.90;;;;;;5045998;28;20032;-56
2023/08/31 08:16:07;;;;;;;6.18;1.27;;;16.70;99.90;;;;;;5040599;28;20044;-55
2023/08/31 08:18:33;;;;;;;3.08;0.73;;;16.40;99.90;;;;;;5061357;28;20095;-57
2023/08/31 08:20:59;;;;;;;2.13;0.95;;;15.90;99.90;;;;;;5064608;28;20052;-57
2023/08/31 08:23:25;;;;;;;1.83;0.70;;;15.80;99.90;;;;;;5025492;28;20029;-56
2023/08/31 08:25:50;;;;;;;2.53;0.52;;;15.70;99.90;;;;;;5045560;28;20475;-55
2023/08/31 08:28:16;;;;;;;1.85;0.80;;;15.50;99.90;;;;;;5039384;28;20395;-58
2023/08/31 08:30:42;;;;;;;2.25;0.73;;;15.40;99.90;;;;;;5046325;28;20036;-57
2023/08/31 08:33:08;;;;;;;1.25;0.68;;;15.40;99.90;;;;;;5041561;28;20400;-55
2023/08/31 08:35:36;;;;;;;2.70;0.60;;;15.40;99.90;;;;;;5045224;28;20040;-56
2023/08/31 08:38:03;;;;;;;2.40;1.20;;;15.60;99.90;;;;;;5023444;28;20045;-58
2023/08/31 08:40:32;;;;;;;2.92;0.82;;;15.80;99.90;;;;;;5042546;28;20063;-58
2023/08/31 08:43:05;;;;;;;3.38;0.98;;;16.00;99.90;;;;;;5038064;28;20044;-57
2023/08/31 08:45:36;;;;;;;5.80;1.13;;;16.30;99.90;;;;;;5046893;28;20129;-56
2023/08/31 08:48:05;;;;;;;2.67;1.08;;;16.40;99.90;;;;;;5067949;28;20067;-57
2023/08/31 08:50:33;;;;;;;4.47;1.45;;;16.60;99.90;;;;;;5026876;28;20546;-58
2023/08/31 08:53:00;;;;;;;5.63;1.38;;;16.70;99.90;;;;;;5049147;28;20369;-58
2023/08/31 08:55:25;;;;;;;4.80;1.17;;;17.00;99.90;;;;;;5031150;28;20051;-58
2023/08/31 08:57:51;;;;;;;6.90;1.67;;;17.10;99.90;;;;;;5044159;28;20041;-55
2023/08/31 09:00:17;;;;;;;5.68;1.13;;;17.10;99.90;;;;;;5048614;28;20044;-55
2023/08/31 09:02:43;;;;;;;5.32;1.27;;;17.20;99.90;;;;;;5031512;28;20039;-57
2023/08/31 09:05:09;;;;;;;2.53;0.57;;;17.20;99.90;;;;;;5042587;28;20477;-56
2023/08/31 09:07:36;;;;;;;4.65;0.90;;;16.70;99.90;;;;;;5040150;28;20071;-57
2023/08/31 09:10:03;;;;;;;1.70;1.08;;;16.50;99.90;;;;;;5034718;28;20036;-57
2023/08/31 09:12:29;;;;;;;3.33;0.70;;;16.40;99.90;;;;;;5032824;28;20402;-58
2023/08/31 09:15:09;;;;;;;5.22;1.00;;;16.30;99.90;;;;;;5043887;28;20040;-56
2023/08/31 09:17:44;;;;;;;3.70;0.80;;;16.30;99.90;;;;;;5041910;28;20109;-57
2023/08/31 09:20:10;;;;;;;2.63;0.80;;;16.20;99.90;;;;;;5045892;28;20403;-56
2023/08/31 09:22:36;;;;;;;2.75;0.80;;;16.40;99.90;;;;;;5047451;28;20037;-57
2023/08/31 09:25:05;;;;;;;3.85;1.05;;;16.60;99.90;;;;;;5022271;28;20044;-58
2023/08/31 09:27:37;;;;;;;3.28;1.05;;;16.90;99.90;;;;;;5016939;28;20403;-56
2023/08/31 09:30:04;;;;;;;2.78;0.80;;;17.20;99.90;;;;;;5045743;28;20135;-58
2023/08/31 09:32:29;;;;;;;2.42;0.63;;;17.20;99.90;;;;;;5045063;28;20040;-56
2023/08/31 09:34:55;;;;;;;3.65;0.80;;;17.30;99.90;;;;;;5044887;28;20476;-57
2023/08/31 09:37:21;;;;;;;4.35;0.73;;;17.20;99.90;;;;;;5044645;28;20275;-57
2023/08/31 09:39:47;;;;;;;1.75;0.85;;;17.20;99.90;;;;;;5026863;28;20511;-57
2023/08/31 09:42:13;;;;;;;3.83;0.75;;;17.00;99.90;;;;;;5012233;28;20321;-58
2023/08/31 09:44:46;;;;;;;2.55;0.68;;;17.30;99.90;;;;;;5041447;28;20133;-57
2023/08/31 09:47:13;;;;;;;3.38;1.00;;;17.60;99.90;;;;;;5035383;28;21707;-58
2023/08/31 09:49:42;;;;;;;2.08;0.70;;;17.70;99.90;;;;;;5059731;28;20056;-58
2023/08/31 09:52:09;;;;;;;2.05;0.70;;;17.80;99.90;;;;;;5043574;28;20056;-58
2023/08/31 09:54:36;;;;;;;1.95;0.88;;;18.00;99.90;;;;;;5043331;28;20127;-57
2023/08/31 09:57:02;;;;;;;3.42;0.77;;;18.10;99.90;;;;;;5035746;28;20088;-59
2023/08/31 09:59:29;;;;;;;2.47;0.70;;;18.30;99.90;;;;;;5042766;28;20065;-56
2023/08/31 10:02:01;;;;;;;3.42;1.17;;;18.00;99.90;;;;;;5025779;28;20059;-59
2023/08/31 10:04:29;;;;;;;2.53;0.75;;;17.90;99.90;;;;;;5041577;28;20040;-56
2023/08/31 10:06:55;;;;;;;3.45;1.33;;;18.00;99.90;;;;;;5034107;28;20045;-57
2023/08/31 10:09:20;;;;;;;1.75;0.70;;;17.90;99.90;;;;;;5064031;28;20495;-57
2023/08/31 10:11:46;;;;;;;2.08;0.52;;;17.80;99.90;;;;;;5040597;28;20222;-56
2023/08/31 10:14:13;;;;;;;1.88;0.70;;;17.90;99.90;;;;;;5043695;28;20040;-58
2023/08/31 10:16:40;;;;;;;3.65;1.08;;;18.10;99.90;;;;;;5033460;28;20048;-58
2023/08/31 10:19:06;;;;;;;1.35;0.70;;;18.30;99.90;;;;;;5043174;28;20044;-57
2023/08/31 10:21:33;;;;;;;5.45;1.35;;;18.50;99.90;;;;;;5062646;28;20051;-58
2023/08/31 10:23:59;;;;;;;4.40;1.02;;;18.50;99.90;;;;;;5038719;28;20496;-57
2023/08/31 10:26:30;;;;;;;2.05;0.80;;;18.60;99.90;;;;;;5023126;28;20036;-58
2023/08/31 10:28:57;;;;;;;2.13;1.13;;;18.70;99.90;;;;;;5023523;28;20387;-59
2023/08/31 10:31:27;;;;;;;2.00;0.98;;;18.70;99.90;;;;;;5029353;28;20454;-58
2023/08/31 10:34:03;;;;;;;2.33;0.70;;;18.60;99.90;;;;;;5049239;28;20051;-56
2023/08/31 10:36:39;;;;;;;4.93;0.80;;;18.40;99.90;;;;;;5062251;28;20529;-59
2023/08/31 10:39:06;;;;;;;2.15;0.80;;;18.30;99.90;;;;;;5059939;28;20049;-59
2023/08/31 10:41:35;;;;;;;2.58;1.08;;;18.10;99.90;;;;;;5042311;28;20051;-58
2023/08/31 10:44:01;;;;;;;3.72;1.17;;;17.80;99.90;;;;;;5023692;28;20502;-58
2023/08/31 10:46:43;;;;;;;2.70;0.80;;;18.00;99.90;;;;;;5045820;28;20101;-57
2023/08/31 10:49:12;;;;;;;2.00;0.88;;;18.10;99.90;;;;;;5044122;28;20052;-58
2023/08/31 10:51:42;;;;;;;1.65;0.70;;;18.30;99.90;;;;;;5045013;28;20052;-57
2023/08/31 10:54:10;;;;;;;2.85;1.10;;;18.50;99.90;;;;;;5045315;28;22724;-58
2023/08/31 10:56:58;;;;;;;3.15;1.17;;;18.70;99.90;;;;;;5043185;28;20189;-57
2023/08/31 10:59:25;;;;;;;3.28;1.00;;;18.50;99.90;;;;;;5022387;28;20656;-59
2023/08/31 11:02:04;;;;;;;2.53;1.00;;;18.80;99.90;;;;;;5044154;28;20048;-58
2023/08/31 11:04:30;;;;;;;2.15;0.82;;;18.80;99.90;;;;;;5028033;28;20040;-58
2023/08/31 11:07:17;;;;;;;2.63;0.90;;;18.90;99.90;;;;;;5044237;28;20090;-57
2023/08/31 11:09:44;;;;;;;4.68;0.88;;;19.40;99.90;;;;;;5044836;28;20052;-57
2023/08/31 11:12:11;;;;;;;4.45;1.00;;;19.40;99.90;;;;;;5043491;28;20040;-57
2023/08/31 11:14:37;;;;;;;1.95;0.85;;;19.10;99.90;;;;;;5042779;28;20106;-58
2023/08/31 11:17:04;;;;;;;2.53;0.95;;;18.60;99.90;;;;;;5041355;28;20150;-59
2023/08/31 11:19:32;;;;;;;2.90;0.63;;;18.30;99.90;;;;;;5028850;28;20059;-60
2023/08/31 11:21:59;;;;;;;3.45;1.33;;;18.30;99.90;;;;;;5044024;28;20250;-59
2023/08/31 11:24:25;;;;;;;2.08;1.00;;;18.10;99.90;;;;;;5043630;28;20105;-58
2023/08/31 11:26:51;;;;;;;4.80;0.90;;;17.80;99.90;;;;;;5025375;28;20767;-58
2023/08/31 11:29:17;;;;;;;3.35;0.70;;;18.10;99.90;;;;;;5059963;28;20101;-59
2023/08/31 11:31:43;;;;;;;4.53;1.10;;;18.20;99.90;;;;;;5038324;28;20451;-56
2023/08/31 11:34:13;;;;;;;3.22;1.30;;;18.10;99.90;;;;;;5043096;28;20044;-59
2023/08/31 11:36:41;;;;;;;3.05;1.20;;;18.10;99.90;;;;;;5044632;28;20051;-57
2023/08/31 11:39:08;;;;;;;4.93;1.33;;;18.40;99.90;;;;;;5057664;28;21303;-59
2023/08/31 11:41:36;;;;;;;3.28;1.00;;;18.80;99.90;;;;;;5042397;28;20039;-58
2023/08/31 11:44:06;;;;;;;3.10;0.90;;;19.00;99.90;;;;;;5045965;28;20028;-59
2023/08/31 11:46:32;;;;;;;3.17;1.10;;;19.10;99.90;;;;;;5024809;28;20382;-58
2023/08/31 11:48:59;;;;;;;4.30;1.20;;;18.80;99.90;;;;;;5061412;28;20040;-58
2023/08/31 11:51:29;;;;;;;4.15;1.15;;;18.50;99.90;;;;;;5042174;28;20052;-59
2023/08/31 11:53:56;;;;;;;16.70;1.77;;;18.20;99.90;;;;;;5043473;28;20546;-59
2023/08/31 11:56:21;;;;;;;5.25;1.15;;;18.30;99.90;;;;;;5043127;28;20244;-57
2023/08/31 11:58:51;;;;;;;3.08;1.00;;;18.70;99.90;;;;;;5043128;28;20445;-59
2023/08/31 12:01:23;;;;;;;3.88;0.80;;;19.00;99.90;;;;;;5042118;28;20191;-59
2023/08/31 12:03:49;;;;;;;2.85;1.05;;;18.80;99.90;;;;;;5040619;28;20051;-58
2023/08/31 12:06:19;;;;;;;3.08;0.90;;;18.60;99.90;;;;;;5036296;28;20041;-57
2023/08/31 12:08:45;;;;;;;5.25;0.98;;;18.70;99.90;;;;;;5047068;28;20044;-58
2023/08/31 12:11:11;;;;;;;6.43;1.30;;;19.10;99.90;;;;;;5045092;28;20037;-59
2023/08/31 12:13:36;;;;;;;4.30;1.40;;;19.20;99.90;;;;;;5024366;28;20561;-57
2023/08/31 12:16:04;;;;;;;3.60;1.00;;;18.80;99.90;;;;;;5030747;28;20036;-55
2023/08/31 12:18:33;;;;;;;4.50;1.27;;;18.70;99.90;;;;;;5040927;28;20037;-58
2023/08/31 12:20:59;;;;;;;4.50;1.73;;;18.60;99.90;;;;;;5040302;28;20127;-58
2023/08/31 12:23:26;;;;;;;5.35;1.48;;;18.30;99.90;;;;;;5041524;28;20135;-56
2023/08/31 12:25:53;;;;;;;4.95;0.98;;;18.30;99.90;;;;;;5041629;28;20156;-59
2023/08/31 12:28:20;;;;;;;3.83;1.40;;;18.30;99.90;;;;;;5061433;28;20052;-57
2023/08/31 12:30:50;;;;;;;6.18;1.10;;;18.30;99.90;;;;;;5042252;28;20036;-57
2023/08/31 12:33:16;;;;;;;7.25;1.85;;;18.50;99.90;;;;;;5041776;28;20036;-58
2023/08/31 12:35:42;;;;;;;4.85;1.58;;;18.50;99.90;;;;;;5042749;28;20048;-57
2023/08/31 12:38:08;;;;;;;4.20;1.25;;;18.60;99.90;;;;;;5025863;28;20056;-58
2023/08/31 12:40:34;;;;;;;5.03;1.50;;;18.40;99.90;;;;;;5041228;28;20364;-58
2023/08/31 12:42:59;;;;;;;5.32;1.80;;;18.40;99.90;;;;;;5041076;28;20044;-54
2023/08/31 12:45:25;;;;;;;4.85;1.77;;;18.40;99.90;;;;;;5041882;28;20037;-59